createdAt,value
2023-05-10T00:00:19.911Z,12.97
2023-05-10T00:00:51.805Z,12.97
2023-05-10T00:01:23.442Z,12.97
2023-05-10T00:01:55.561Z,12.97
2023-05-10T00:02:27.778Z,12.97
2023-05-10T00:02:59.325Z,12.97
2023-05-10T00:03:30.845Z,12.97
2023-05-10T00:04:02.327Z,12.97
2023-05-10T00:04:33.797Z,12.96
2023-05-10T00:05:06.129Z,12.95
2023-05-10T00:05:37.560Z,12.96
2023-05-10T00:06:09.052Z,12.95
2023-05-10T00:06:40.460Z,12.96
2023-05-10T00:07:11.844Z,12.95
2023-05-10T00:07:45.751Z,12.96
2023-05-10T00:08:17.309Z,12.95
2023-05-10T00:08:48.710Z,12.95
2023-05-10T00:09:20.232Z,12.95
2023-05-10T00:09:51.707Z,12.95
2023-05-10T00:10:23.382Z,12.95
2023-05-10T00:10:54.811Z,12.95
2023-05-10T00:11:26.337Z,12.94
2023-05-10T00:11:59.550Z,12.94
2023-05-10T00:12:30.969Z,12.95
2023-05-10T00:13:02.578Z,12.95
2023-05-10T00:13:34.209Z,12.95
2023-05-10T00:14:05.843Z,12.95
2023-05-10T00:14:37.234Z,12.96
2023-05-10T00:15:09.862Z,12.96
2023-05-10T00:15:41.322Z,12.96
2023-05-10T00:16:14.022Z,12.96
2023-05-10T00:16:46.265Z,12.96
2023-05-10T00:17:17.787Z,12.96
2023-05-10T00:17:49.318Z,12.96
2023-05-10T00:18:20.878Z,12.96
2023-05-10T00:18:52.358Z,12.96
2023-05-10T00:19:23.806Z,12.96
2023-05-10T00:19:55.453Z,12.96
2023-05-10T00:20:26.879Z,12.96
2023-05-10T00:20:58.308Z,12.96
2023-05-10T00:21:29.798Z,12.96
2023-05-10T00:22:01.370Z,12.96
2023-05-10T00:22:33.151Z,12.96
2023-05-10T00:23:04.801Z,12.95
2023-05-10T00:23:36.390Z,12.96
2023-05-10T00:24:07.851Z,12.95
2023-05-10T00:24:39.239Z,12.96
2023-05-10T00:25:11.466Z,12.96
2023-05-10T00:25:43.161Z,12.96
2023-05-10T00:26:14.556Z,12.96
2023-05-10T00:26:46.012Z,12.95
2023-05-10T00:27:17.378Z,12.95
2023-05-10T00:27:48.868Z,12.96
2023-05-10T00:28:20.327Z,12.96
2023-05-10T00:28:51.791Z,12.96
2023-05-10T00:29:23.258Z,12.96
2023-05-10T00:29:54.644Z,12.96
2023-05-10T00:30:26.022Z,12.97
2023-05-10T00:30:57.461Z,12.96
2023-05-10T00:31:28.925Z,12.96
2023-05-10T00:32:00.391Z,12.96
2023-05-10T00:32:31.954Z,12.96
2023-05-10T00:33:04.110Z,12.97
2023-05-10T00:33:35.541Z,12.97
2023-05-10T00:34:06.869Z,12.95
2023-05-10T00:34:38.218Z,12.96
2023-05-10T00:35:09.674Z,12.97
2023-05-10T00:35:41.299Z,12.96
2023-05-10T00:36:12.844Z,12.96
2023-05-10T00:36:44.469Z,12.97
2023-05-10T00:37:16.213Z,12.97
2023-05-10T00:37:47.688Z,12.96
2023-05-10T00:38:19.417Z,12.97
2023-05-10T00:38:50.942Z,12.97
2023-05-10T00:39:22.500Z,12.96
2023-05-10T00:39:54.519Z,12.96
2023-05-10T00:40:26.175Z,12.96
2023-05-10T00:40:57.594Z,12.95
2023-05-10T00:41:29.022Z,12.97
2023-05-10T00:42:01.229Z,12.95
2023-05-10T00:42:32.734Z,12.96
2023-05-10T00:43:04.291Z,12.96
2023-05-10T00:43:35.630Z,12.96
2023-05-10T00:44:07.293Z,12.95
2023-05-10T00:44:38.874Z,12.96
2023-05-10T00:45:10.614Z,12.95
2023-05-10T00:45:42.504Z,12.96
2023-05-10T00:46:16.477Z,12.95
2023-05-10T00:46:49.402Z,12.95
2023-05-10T00:47:20.948Z,12.94
2023-05-10T00:47:56.078Z,12.95
2023-05-10T00:48:27.774Z,12.94
2023-05-10T00:48:59.348Z,12.95
2023-05-10T00:49:31.221Z,12.94
2023-05-10T00:50:03.157Z,12.95
2023-05-10T00:50:34.850Z,12.94
2023-05-10T00:51:07.064Z,12.94
2023-05-10T00:51:38.610Z,12.94
2023-05-10T00:52:10.787Z,12.94
2023-05-10T00:52:43.685Z,12.95
2023-05-10T00:53:16.305Z,12.94
2023-05-10T00:53:47.927Z,12.94
2023-05-10T00:54:19.596Z,12.94
2023-05-10T00:54:53.124Z,12.94
2023-05-10T00:55:24.936Z,12.94
2023-05-10T00:55:56.481Z,12.94
2023-05-10T00:56:29.349Z,12.95
2023-05-10T00:57:00.764Z,12.95
2023-05-10T00:57:32.772Z,12.96
2023-05-10T00:58:06.338Z,12.96
2023-05-10T00:58:37.906Z,12.97
2023-05-10T00:59:10.617Z,12.96
2023-05-10T00:59:42.110Z,12.96
2023-05-10T01:00:18.823Z,12.95
2023-05-10T01:00:51.494Z,12.96
2023-05-10T01:01:23.191Z,12.96
2023-05-10T01:01:54.888Z,12.95
2023-05-10T01:02:26.628Z,12.95
2023-05-10T01:02:59.010Z,12.95
2023-05-10T01:03:30.776Z,12.96
2023-05-10T01:04:04.152Z,12.95
2023-05-10T01:04:36.463Z,12.94
2023-05-10T01:05:08.069Z,12.94
2023-05-10T01:05:39.508Z,12.92
2023-05-10T01:06:11.225Z,12.92
2023-05-10T01:06:43.043Z,12.91
2023-05-10T01:07:14.404Z,12.91
2023-05-10T01:07:45.755Z,12.90
2023-05-10T01:08:17.590Z,12.90
2023-05-10T01:08:48.987Z,12.90
2023-05-10T01:09:21.185Z,12.90
2023-05-10T01:09:52.767Z,12.91
2023-05-10T01:10:24.597Z,12.89
2023-05-10T01:10:56.317Z,12.91
2023-05-10T01:11:27.999Z,12.90
2023-05-10T01:12:02.473Z,12.89
2023-05-10T01:12:40.896Z,12.90
2023-05-10T01:13:13.620Z,12.90
2023-05-10T01:13:57.669Z,12.90
2023-05-10T01:14:29.837Z,12.91
2023-05-10T01:15:02.573Z,12.90
2023-05-10T01:15:34.733Z,12.91
2023-05-10T01:16:07.936Z,12.91
2023-05-10T01:16:41.810Z,12.91
2023-05-10T01:17:13.554Z,12.90
2023-05-10T01:17:47.516Z,12.90
2023-05-10T01:18:22.068Z,12.91
2023-05-10T01:18:53.892Z,12.92
2023-05-10T01:19:27.575Z,12.91
2023-05-10T01:19:59.086Z,12.90
2023-05-10T01:20:37.519Z,12.90
2023-05-10T01:21:20.580Z,12.90
2023-05-10T01:22:16.638Z,12.90
2023-05-10T01:23:31.975Z,12.88
2023-05-10T01:24:15.969Z,12.88
2023-05-10T01:25:20.867Z,12.87
2023-05-10T01:26:01.540Z,12.86
2023-05-10T01:26:47.766Z,12.87
2023-05-10T01:27:30.975Z,12.87
2023-05-10T01:28:02.314Z,12.86
2023-05-10T01:28:50.980Z,12.86
2023-05-10T01:30:13.990Z,12.86
2023-05-10T01:31:24.621Z,12.85
2023-05-10T01:32:26.750Z,12.81
2023-05-10T01:33:22.969Z,12.80
2023-05-10T01:34:03.727Z,12.79
2023-05-10T01:34:55.681Z,12.79
2023-05-10T01:35:35.506Z,12.79
2023-05-10T01:36:17.113Z,12.79
2023-05-10T01:37:03.868Z,12.78
2023-05-10T01:37:43.770Z,12.78
2023-05-10T01:38:47.474Z,12.79
2023-05-10T01:39:27.640Z,12.79
2023-05-10T01:40:17.195Z,12.78
2023-05-10T01:41:02.495Z,12.78
2023-05-10T01:41:56.535Z,12.77
2023-05-10T01:42:34.744Z,12.77
2023-05-10T01:43:12.115Z,12.76
2023-05-10T01:44:19.816Z,12.77
2023-05-10T01:44:59.332Z,12.77
2023-05-10T01:45:51.799Z,12.76
2023-05-10T01:46:34.345Z,12.76
2023-05-10T01:47:11.684Z,12.76
2023-05-10T01:47:45.685Z,12.75
2023-05-10T01:48:20.407Z,12.76
2023-05-10T01:48:56.809Z,12.75
2023-05-10T01:49:32.924Z,12.75
2023-05-10T01:50:07.767Z,12.75
2023-05-10T01:50:44.590Z,12.75
2023-05-10T01:51:24.764Z,12.75
2023-05-10T01:52:04.423Z,12.74
2023-05-10T01:52:41.803Z,12.74
2023-05-10T01:53:16.483Z,12.73
2023-05-10T01:53:49.911Z,12.72
2023-05-10T01:54:23.663Z,12.71
2023-05-10T01:55:00.981Z,12.71
2023-05-10T01:55:35.914Z,12.70
2023-05-10T01:56:09.219Z,12.71
2023-05-10T01:56:42.958Z,12.71
2023-05-10T01:57:15.345Z,12.72
2023-05-10T01:57:51.832Z,12.72
2023-05-10T01:58:31.531Z,12.72
2023-05-10T01:59:08.893Z,12.73
2023-05-10T01:59:44.043Z,12.74
2023-05-10T02:00:17.224Z,12.75
2023-05-10T02:00:51.490Z,12.74
2023-05-10T02:01:24.005Z,12.74
2023-05-10T02:01:59.809Z,12.74
2023-05-10T02:02:37.669Z,12.74
2023-05-10T02:03:11.325Z,12.76
2023-05-10T02:03:44.502Z,12.75
2023-05-10T02:04:18.410Z,12.75
2023-05-10T02:04:51.613Z,12.76
2023-05-10T02:05:23.859Z,12.75
2023-05-10T02:05:57.191Z,12.76
2023-05-10T02:06:29.213Z,12.75
2023-05-10T02:07:00.879Z,12.75
2023-05-10T02:07:34.121Z,12.75
2023-05-10T02:08:08.184Z,12.75
2023-05-10T02:08:41.263Z,12.74
2023-05-10T02:09:13.964Z,12.75
2023-05-10T02:09:50.432Z,12.76
2023-05-10T02:10:21.874Z,12.75
2023-05-10T02:10:55.785Z,12.76
2023-05-10T02:11:29.125Z,12.75
2023-05-10T02:12:04.287Z,12.76
2023-05-10T02:12:48.316Z,12.76
2023-05-10T02:13:20.663Z,12.76
2023-05-10T02:13:54.565Z,12.75
2023-05-10T02:14:27.917Z,12.75
2023-05-10T02:15:03.768Z,12.74
2023-05-10T02:15:36.146Z,12.75
2023-05-10T02:16:08.336Z,12.74
2023-05-10T02:16:41.510Z,12.75
2023-05-10T02:17:14.404Z,12.75
2023-05-10T02:17:47.528Z,12.75
2023-05-10T02:18:19.612Z,12.75
2023-05-10T02:18:53.104Z,12.76
2023-05-10T02:19:25.216Z,12.76
2023-05-10T02:19:57.905Z,12.76
2023-05-10T02:20:32.051Z,12.76
2023-05-10T02:21:04.284Z,12.76
2023-05-10T02:21:37.215Z,12.75
2023-05-10T02:22:10.342Z,12.76
2023-05-10T02:22:43.781Z,12.74
2023-05-10T02:23:17.850Z,12.76
2023-05-10T02:23:51.076Z,12.75
2023-05-10T02:24:25.269Z,12.75
2023-05-10T02:25:00.358Z,12.75
2023-05-10T02:25:33.553Z,12.75
2023-05-10T02:26:07.261Z,12.76
2023-05-10T02:26:39.524Z,12.76
2023-05-10T02:27:12.319Z,12.76
2023-05-10T02:27:45.619Z,12.76
2023-05-10T02:28:18.089Z,12.76
2023-05-10T02:28:51.164Z,12.76
2023-05-10T02:29:26.075Z,12.76
2023-05-10T02:29:58.934Z,12.75
2023-05-10T02:30:33.385Z,12.75
2023-05-10T02:31:06.971Z,12.75
2023-05-10T02:31:39.800Z,12.75
2023-05-10T02:32:12.978Z,12.74
2023-05-10T02:32:45.527Z,12.74
2023-05-10T02:33:18.545Z,12.74
2023-05-10T02:33:50.651Z,12.72
2023-05-10T02:34:26.030Z,12.71
2023-05-10T02:34:58.353Z,12.71
2023-05-10T02:35:29.837Z,12.71
2023-05-10T02:36:03.573Z,12.70
2023-05-10T02:36:36.348Z,12.70
2023-05-10T02:37:08.030Z,12.70
2023-05-10T02:37:40.727Z,12.70
2023-05-10T02:38:13.487Z,12.70
2023-05-10T02:38:46.490Z,12.71
2023-05-10T02:39:20.394Z,12.70
2023-05-10T02:39:54.805Z,12.70
2023-05-10T02:40:28.838Z,12.70
2023-05-10T02:41:00.522Z,12.69
2023-05-10T02:41:33.712Z,12.70
2023-05-10T02:42:06.523Z,12.68
2023-05-10T02:42:39.714Z,12.69
2023-05-10T02:43:15.332Z,12.67
2023-05-10T02:43:48.050Z,12.67
2023-05-10T02:44:21.376Z,12.67
2023-05-10T02:44:55.539Z,12.67
2023-05-10T02:45:31.319Z,12.67
2023-05-10T02:46:03.287Z,12.68
2023-05-10T02:46:35.020Z,12.69
2023-05-10T02:47:06.460Z,12.70
2023-05-10T02:47:38.065Z,12.69
2023-05-10T02:48:09.574Z,12.68
2023-05-10T02:48:41.024Z,12.70
2023-05-10T02:49:12.614Z,12.68
2023-05-10T02:49:44.146Z,12.69
2023-05-10T02:50:16.033Z,12.68
2023-05-10T02:50:52.265Z,12.69
2023-05-10T02:51:29.164Z,12.68
2023-05-10T02:52:05.754Z,12.69
2023-05-10T02:52:48.115Z,12.69
2023-05-10T02:53:23.894Z,12.68
2023-05-10T02:53:57.557Z,12.66
2023-05-10T02:54:32.820Z,12.66
2023-05-10T02:55:06.805Z,12.66
2023-05-10T02:55:43.101Z,12.67
2023-05-10T02:56:25.916Z,12.68
2023-05-10T02:57:04.872Z,12.66
2023-05-10T02:57:42.282Z,12.66
2023-05-10T02:58:13.694Z,12.66
2023-05-10T02:58:45.033Z,12.64
2023-05-10T02:59:16.475Z,12.64
2023-05-10T02:59:47.905Z,12.62
2023-05-10T03:00:19.516Z,12.62
2023-05-10T03:00:51.367Z,12.63
2023-05-10T03:01:22.888Z,12.63
2023-05-10T03:01:54.714Z,12.64
2023-05-10T03:02:26.215Z,12.63
2023-05-10T03:02:58.541Z,12.63
2023-05-10T03:03:30.010Z,12.62
2023-05-10T03:04:01.847Z,12.62
2023-05-10T03:04:33.254Z,12.62
2023-05-10T03:05:04.981Z,12.63
2023-05-10T03:05:36.360Z,12.61
2023-05-10T03:06:07.752Z,12.61
2023-05-10T03:06:39.166Z,12.62
2023-05-10T03:07:10.924Z,12.61
2023-05-10T03:07:42.354Z,12.59
2023-05-10T03:08:13.874Z,12.61
2023-05-10T03:08:46.345Z,12.60
2023-05-10T03:09:17.794Z,12.60
2023-05-10T03:09:50.309Z,12.59
2023-05-10T03:10:28.419Z,12.60
2023-05-10T03:11:06.358Z,12.59
2023-05-10T03:12:04.846Z,12.58
2023-05-10T03:12:57.581Z,12.55
2023-05-10T03:13:29.070Z,12.55
2023-05-10T03:14:32.079Z,12.54
2023-05-10T03:15:20.546Z,12.54
2023-05-10T03:16:13.120Z,12.54
2023-05-10T03:16:53.369Z,12.53
2023-05-10T03:17:31.888Z,12.53
2023-05-10T03:18:09.032Z,12.52
2023-05-10T03:18:45.541Z,12.51
2023-05-10T03:19:35.693Z,12.52
2023-05-10T03:20:12.687Z,12.52
2023-05-10T03:20:49.261Z,12.53
2023-05-10T03:21:24.047Z,12.51
2023-05-10T03:22:00.833Z,12.51
2023-05-10T03:22:37.119Z,12.51
2023-05-10T03:23:23.531Z,12.51
2023-05-10T03:24:01.357Z,12.49
2023-05-10T03:24:35.240Z,12.49
2023-05-10T03:25:09.250Z,12.49
2023-05-10T03:25:41.953Z,12.49
2023-05-10T03:26:21.443Z,12.50
2023-05-10T03:26:56.633Z,12.50
2023-05-10T03:27:28.934Z,12.51
2023-05-10T03:28:02.668Z,12.52
2023-05-10T03:28:35.858Z,12.51
2023-05-10T03:29:09.004Z,12.50
2023-05-10T03:29:40.626Z,12.50
2023-05-10T03:30:13.771Z,12.48
2023-05-10T03:30:46.316Z,12.48
2023-05-10T03:31:18.691Z,12.48
2023-05-10T03:31:50.896Z,12.45
2023-05-10T03:32:23.378Z,12.45
2023-05-10T03:32:55.162Z,12.46
2023-05-10T03:33:26.753Z,12.45
2023-05-10T03:33:58.137Z,12.47
2023-05-10T03:34:31.402Z,12.47
2023-05-10T03:35:10.813Z,12.45
2023-05-10T03:35:42.408Z,12.44
2023-05-10T03:36:13.721Z,12.44
2023-05-10T03:36:45.171Z,12.45
2023-05-10T03:37:16.559Z,12.44
2023-05-10T03:37:48.402Z,12.44
2023-05-10T03:38:19.743Z,12.45
2023-05-10T03:38:51.232Z,12.45
2023-05-10T03:39:22.728Z,12.46
2023-05-10T03:39:54.195Z,12.47
2023-05-10T03:40:27.013Z,12.46
2023-05-10T03:40:58.358Z,12.47
2023-05-10T03:41:30.277Z,12.45
2023-05-10T03:42:01.860Z,12.46
2023-05-10T03:42:33.255Z,12.45
2023-05-10T03:43:05.019Z,12.47
2023-05-10T03:43:36.500Z,12.45
2023-05-10T03:44:07.868Z,12.47
2023-05-10T03:44:40.771Z,12.47
2023-05-10T03:45:12.170Z,12.48
2023-05-10T03:45:43.517Z,12.48
2023-05-10T03:46:14.913Z,12.48
2023-05-10T03:46:46.458Z,12.50
2023-05-10T03:47:17.904Z,12.50
2023-05-10T03:47:49.302Z,12.49
2023-05-10T03:48:20.692Z,12.49
2023-05-10T03:48:52.063Z,12.50
2023-05-10T03:49:24.070Z,12.49
2023-05-10T03:49:55.418Z,12.50
2023-05-10T03:50:27.263Z,12.50
2023-05-10T03:50:58.620Z,12.50
2023-05-10T03:51:31.980Z,12.51
2023-05-10T03:52:03.451Z,12.51
2023-05-10T03:52:34.856Z,12.51
2023-05-10T03:53:06.393Z,12.50
2023-05-10T03:53:37.796Z,12.49
2023-05-10T03:54:09.165Z,12.48
2023-05-10T03:54:40.624Z,12.48
2023-05-10T03:55:12.017Z,12.48
2023-05-10T03:55:43.402Z,12.49
2023-05-10T03:56:14.829Z,12.48
2023-05-10T03:56:47.430Z,12.49
2023-05-10T03:57:18.794Z,12.49
2023-05-10T03:57:54.658Z,12.50
2023-05-10T03:58:26.210Z,12.51
2023-05-10T03:58:57.628Z,12.51
2023-05-10T03:59:29.042Z,12.52
2023-05-10T04:00:00.730Z,12.52
2023-05-10T04:00:33.443Z,12.53
2023-05-10T04:01:04.885Z,12.52
2023-05-10T04:01:36.336Z,12.52
2023-05-10T04:02:07.982Z,12.51
2023-05-10T04:02:39.519Z,12.51
2023-05-10T04:03:11.511Z,12.52
2023-05-10T04:03:43.067Z,12.51
2023-05-10T04:04:14.486Z,12.51
2023-05-10T04:04:46.066Z,12.51
2023-05-10T04:05:17.449Z,12.49
2023-05-10T04:05:48.870Z,12.47
2023-05-10T04:06:20.472Z,12.45
2023-05-10T04:06:51.968Z,12.45
2023-05-10T04:07:23.427Z,12.44
2023-05-10T04:07:54.882Z,12.43
2023-05-10T04:08:26.716Z,12.44
2023-05-10T04:09:00.743Z,12.44
2023-05-10T04:09:32.350Z,12.44
2023-05-10T04:10:04.056Z,12.44
2023-05-10T04:10:35.702Z,12.44
2023-05-10T04:11:12.000Z,12.44
2023-05-10T04:11:43.648Z,12.44
2023-05-10T04:12:15.029Z,12.43
2023-05-10T04:12:46.633Z,12.43
2023-05-10T04:13:18.085Z,12.42
2023-05-10T04:13:49.625Z,12.42
2023-05-10T04:14:21.187Z,12.41
2023-05-10T04:14:52.762Z,12.42
2023-05-10T04:15:24.191Z,12.41
2023-05-10T04:15:55.717Z,12.42
2023-05-10T04:16:27.088Z,12.42
2023-05-10T04:16:58.555Z,12.42
2023-05-10T04:17:30.293Z,12.42
2023-05-10T04:18:01.923Z,12.42
2023-05-10T04:18:33.714Z,12.42
2023-05-10T04:19:05.424Z,12.42
2023-05-10T04:19:36.920Z,12.42
2023-05-10T04:20:09.280Z,12.42
2023-05-10T04:20:40.665Z,12.43
2023-05-10T04:21:14.260Z,12.43
2023-05-10T04:21:46.263Z,12.44
2023-05-10T04:22:18.569Z,12.42
2023-05-10T04:22:49.989Z,12.42
2023-05-10T04:23:21.381Z,12.41
2023-05-10T04:23:52.688Z,12.42
2023-05-10T04:24:25.431Z,12.43
2023-05-10T04:24:56.838Z,12.43
2023-05-10T04:25:28.179Z,12.43
2023-05-10T04:26:03.256Z,12.43
2023-05-10T04:26:34.686Z,12.43
2023-05-10T04:27:06.067Z,12.43
2023-05-10T04:27:37.857Z,12.43
2023-05-10T04:28:09.552Z,12.42
2023-05-10T04:28:40.997Z,12.43
2023-05-10T04:29:12.575Z,12.43
2023-05-10T04:29:43.991Z,12.42
2023-05-10T04:30:15.869Z,12.42
2023-05-10T04:30:47.393Z,12.43
2023-05-10T04:31:18.910Z,12.42
2023-05-10T04:31:50.354Z,12.42
2023-05-10T04:32:21.849Z,12.41
2023-05-10T04:32:53.315Z,12.42
2023-05-10T04:33:24.684Z,12.42
2023-05-10T04:33:56.089Z,12.42
2023-05-10T04:34:27.526Z,12.43
2023-05-10T04:34:59.144Z,12.44
2023-05-10T04:35:30.491Z,12.44
2023-05-10T04:36:02.566Z,12.46
2023-05-10T04:36:36.302Z,12.45
2023-05-10T04:37:08.568Z,12.44
2023-05-10T04:37:39.964Z,12.44
2023-05-10T04:38:11.435Z,12.44
2023-05-10T04:38:43.662Z,12.44
2023-05-10T04:39:15.066Z,12.45
2023-05-10T04:39:46.575Z,12.43
2023-05-10T04:40:18.285Z,12.45
2023-05-10T04:40:49.883Z,12.45
2023-05-10T04:41:21.648Z,12.44
2023-05-10T04:41:53.033Z,12.44
2023-05-10T04:42:24.393Z,12.44
2023-05-10T04:42:55.832Z,12.44
2023-05-10T04:43:27.212Z,12.43
2023-05-10T04:43:58.616Z,12.44
2023-05-10T04:44:30.641Z,12.43
2023-05-10T04:45:02.093Z,12.42
2023-05-10T04:45:33.426Z,12.42
2023-05-10T04:46:05.882Z,12.42
2023-05-10T04:46:37.349Z,12.42
2023-05-10T04:47:11.152Z,12.43
2023-05-10T04:47:43.935Z,12.44
2023-05-10T04:48:15.413Z,12.44
2023-05-10T04:48:46.930Z,12.45
2023-05-10T04:49:18.805Z,12.45
2023-05-10T04:49:50.209Z,12.44
2023-05-10T04:50:21.645Z,12.44
2023-05-10T04:50:53.169Z,12.45
2023-05-10T04:51:24.597Z,12.46
2023-05-10T04:51:56.410Z,12.47
2023-05-10T04:52:27.790Z,12.45
2023-05-10T04:52:59.144Z,12.47
2023-05-10T04:53:31.006Z,12.46
2023-05-10T04:54:06.621Z,12.45
2023-05-10T04:54:38.415Z,12.45
2023-05-10T04:55:10.805Z,12.44
2023-05-10T04:55:42.157Z,12.44
2023-05-10T04:56:13.552Z,12.44
2023-05-10T04:56:45.001Z,12.42
2023-05-10T04:57:16.445Z,12.42
2023-05-10T04:57:47.837Z,12.44
2023-05-10T04:58:19.237Z,12.43
2023-05-10T04:58:50.855Z,12.43
2023-05-10T04:59:22.308Z,12.43
2023-05-10T04:59:53.731Z,12.45
2023-05-10T05:00:25.610Z,12.46
2023-05-10T05:00:57.039Z,12.47
2023-05-10T05:01:28.414Z,12.47
2023-05-10T05:01:59.920Z,12.47
2023-05-10T05:02:31.903Z,12.47
2023-05-10T05:03:03.472Z,12.47
2023-05-10T05:03:35.135Z,12.47
2023-05-10T05:04:06.567Z,12.48
2023-05-10T05:04:37.982Z,12.48
2023-05-10T05:05:09.496Z,12.48
2023-05-10T05:05:40.957Z,12.47
2023-05-10T05:06:12.334Z,12.47
2023-05-10T05:06:44.052Z,12.48
2023-05-10T05:07:15.700Z,12.48
2023-05-10T05:07:47.086Z,12.49
2023-05-10T05:08:18.530Z,12.50
2023-05-10T05:08:50.629Z,12.50
2023-05-10T05:09:22.094Z,12.51
2023-05-10T05:09:54.157Z,12.51
2023-05-10T05:10:25.582Z,12.52
2023-05-10T05:10:56.911Z,12.52
2023-05-10T05:11:28.334Z,12.52
2023-05-10T05:11:59.800Z,12.53
2023-05-10T05:12:31.302Z,12.53
2023-05-10T05:13:03.061Z,12.54
2023-05-10T05:13:34.529Z,12.53
2023-05-10T05:14:05.867Z,12.55
2023-05-10T05:14:37.228Z,12.56
2023-05-10T05:15:10.282Z,12.56
2023-05-10T05:15:41.742Z,12.55
2023-05-10T05:16:13.175Z,12.56
2023-05-10T05:16:44.583Z,12.55
2023-05-10T05:17:16.248Z,12.55
2023-05-10T05:17:47.941Z,12.55
2023-05-10T05:18:19.377Z,12.54
2023-05-10T05:18:50.828Z,12.53
2023-05-10T05:19:22.419Z,12.54
2023-05-10T05:19:54.244Z,12.53
2023-05-10T05:20:25.717Z,12.51
2023-05-10T05:20:57.054Z,12.53
2023-05-10T05:21:28.493Z,12.52
2023-05-10T05:21:59.837Z,12.53
2023-05-10T05:22:31.333Z,12.52
2023-05-10T05:23:02.923Z,12.52
2023-05-10T05:23:34.306Z,12.52
2023-05-10T05:24:06.332Z,12.52
2023-05-10T05:24:41.007Z,12.52
2023-05-10T05:25:12.740Z,12.52
2023-05-10T05:25:44.203Z,12.52
2023-05-10T05:26:16.134Z,12.52
2023-05-10T05:26:48.048Z,12.51
2023-05-10T05:27:19.424Z,12.52
2023-05-10T05:27:50.955Z,12.52
2023-05-10T05:28:24.812Z,12.53
2023-05-10T05:28:56.272Z,12.51
2023-05-10T05:29:27.592Z,12.52
2023-05-10T05:29:59.657Z,12.53
2023-05-10T05:30:31.007Z,12.53
2023-05-10T05:31:02.370Z,12.54
2023-05-10T05:31:33.721Z,12.55
2023-05-10T05:32:05.521Z,12.55
2023-05-10T05:32:36.990Z,12.54
2023-05-10T05:33:08.523Z,12.55
2023-05-10T05:33:39.968Z,12.57
2023-05-10T05:34:11.285Z,12.57
2023-05-10T05:34:42.683Z,12.57
2023-05-10T05:35:14.268Z,12.58
2023-05-10T05:35:51.477Z,12.58
2023-05-10T05:36:22.886Z,12.59
2023-05-10T05:36:54.801Z,12.58
2023-05-10T05:37:26.187Z,12.59
2023-05-10T05:37:57.567Z,12.59
2023-05-10T05:38:28.993Z,12.57
2023-05-10T05:39:00.322Z,12.56
2023-05-10T05:39:31.676Z,12.55
2023-05-10T05:40:03.562Z,12.54
2023-05-10T05:40:35.023Z,12.53
2023-05-10T05:41:06.375Z,12.53
2023-05-10T05:41:37.806Z,12.52
2023-05-10T05:42:10.268Z,12.51
2023-05-10T05:42:42.209Z,12.52
2023-05-10T05:43:14.412Z,12.52
2023-05-10T05:43:45.749Z,12.52
2023-05-10T05:44:17.150Z,12.52
2023-05-10T05:44:48.524Z,12.52
2023-05-10T05:45:20.081Z,12.53
2023-05-10T05:45:54.140Z,12.52
2023-05-10T05:46:25.752Z,12.52
2023-05-10T05:46:57.228Z,12.54
2023-05-10T05:47:28.633Z,12.54
2023-05-10T05:48:00.479Z,12.54
2023-05-10T05:48:32.148Z,12.55
2023-05-10T05:49:03.734Z,12.56
2023-05-10T05:49:35.086Z,12.56
2023-05-10T05:50:07.155Z,12.57
2023-05-10T05:50:38.502Z,12.56
2023-05-10T05:51:09.871Z,12.56
2023-05-10T05:51:41.243Z,12.55
2023-05-10T05:52:12.687Z,12.53
2023-05-10T05:52:44.089Z,12.52
2023-05-10T05:53:15.640Z,12.52
2023-05-10T05:53:47.048Z,12.52
2023-05-10T05:54:18.460Z,12.52
2023-05-10T05:54:49.824Z,12.52
2023-05-10T05:55:21.144Z,12.48
2023-05-10T05:55:56.788Z,12.47
2023-05-10T05:56:28.119Z,12.46
2023-05-10T05:57:01.308Z,12.46
2023-05-10T05:57:33.082Z,12.44
2023-05-10T05:58:04.624Z,12.45
2023-05-10T05:58:36.456Z,12.46
2023-05-10T05:59:07.891Z,12.46
2023-05-10T05:59:44.581Z,12.46
2023-05-10T06:00:16.456Z,12.47
2023-05-10T06:00:47.849Z,12.45
2023-05-10T06:01:19.351Z,12.45
2023-05-10T06:01:50.774Z,12.45
2023-05-10T06:02:25.182Z,12.45
2023-05-10T06:02:56.913Z,12.45
2023-05-10T06:03:28.413Z,12.45
2023-05-10T06:03:59.866Z,12.44
2023-05-10T06:04:31.426Z,12.44
2023-05-10T06:05:03.358Z,12.44
2023-05-10T06:05:34.693Z,12.44
2023-05-10T06:06:06.334Z,12.44
2023-05-10T06:06:37.761Z,12.42
2023-05-10T06:07:09.121Z,12.42
2023-05-10T06:07:43.114Z,12.41
2023-05-10T06:08:14.627Z,12.40
2023-05-10T06:08:45.953Z,12.41
2023-05-10T06:09:17.383Z,12.41
2023-05-10T06:09:48.762Z,12.41
2023-05-10T06:10:20.391Z,12.40
2023-05-10T06:10:51.777Z,12.39
2023-05-10T06:11:23.827Z,12.40
2023-05-10T06:11:55.209Z,12.39
2023-05-10T06:12:26.543Z,12.39
2023-05-10T06:12:57.938Z,12.38
2023-05-10T06:13:33.905Z,12.38
2023-05-10T06:14:05.834Z,12.37
2023-05-10T06:14:37.216Z,12.37
2023-05-10T06:15:09.361Z,12.38
2023-05-10T06:15:41.128Z,12.39
2023-05-10T06:16:13.142Z,12.39
2023-05-10T06:16:44.521Z,12.40
2023-05-10T06:17:15.921Z,12.40
2023-05-10T06:17:48.145Z,12.42
2023-05-10T06:18:19.692Z,12.41
2023-05-10T06:18:51.072Z,12.42
2023-05-10T06:19:22.593Z,12.41
2023-05-10T06:19:54.162Z,12.40
2023-05-10T06:20:26.011Z,12.38
2023-05-10T06:20:57.374Z,12.37
2023-05-10T06:21:28.769Z,12.35
2023-05-10T06:22:00.217Z,12.36
2023-05-10T06:22:31.566Z,12.35
2023-05-10T06:23:02.913Z,12.35
2023-05-10T06:23:34.309Z,12.35
2023-05-10T06:24:07.772Z,12.34
2023-05-10T06:24:39.164Z,12.35
2023-05-10T06:25:10.971Z,12.35
2023-05-10T06:25:42.626Z,12.36
2023-05-10T06:26:14.823Z,12.36
2023-05-10T06:26:46.245Z,12.36
2023-05-10T06:27:18.202Z,12.36
2023-05-10T06:27:53.486Z,12.37
2023-05-10T06:28:25.339Z,12.38
2023-05-10T06:28:56.798Z,12.39
2023-05-10T06:29:28.269Z,12.40
2023-05-10T06:30:11.621Z,12.40
2023-05-10T06:30:44.183Z,12.41
2023-05-10T06:31:15.572Z,12.40
2023-05-10T06:31:47.386Z,12.41
2023-05-10T06:32:18.914Z,12.40
2023-05-10T06:32:50.717Z,12.39
2023-05-10T06:33:22.178Z,12.39
2023-05-10T06:33:56.075Z,12.38
2023-05-10T06:34:28.204Z,12.37
2023-05-10T06:34:59.568Z,12.38
2023-05-10T06:35:32.395Z,12.38
2023-05-10T06:36:04.275Z,12.39
2023-05-10T06:36:35.672Z,12.40
2023-05-10T06:37:07.203Z,12.42
2023-05-10T06:37:38.702Z,12.42
2023-05-10T06:38:10.138Z,12.43
2023-05-10T06:38:41.723Z,12.44
2023-05-10T06:39:13.246Z,12.44
2023-05-10T06:39:44.618Z,12.46
2023-05-10T06:40:16.497Z,12.46
2023-05-10T06:40:48.219Z,12.47
2023-05-10T06:41:19.671Z,12.46
2023-05-10T06:41:51.228Z,12.45
2023-05-10T06:42:22.673Z,12.45
2023-05-10T06:42:54.044Z,12.45
2023-05-10T06:43:27.115Z,12.45
2023-05-10T06:43:58.438Z,12.43
2023-05-10T06:44:29.749Z,12.42
2023-05-10T06:45:01.272Z,12.42
2023-05-10T06:45:32.610Z,12.42
2023-05-10T06:46:04.052Z,12.41
2023-05-10T06:46:36.138Z,12.41
2023-05-10T06:47:07.527Z,12.41
2023-05-10T06:47:39.448Z,12.41
2023-05-10T06:48:11.118Z,12.41
2023-05-10T06:48:42.509Z,12.39
2023-05-10T06:49:13.908Z,12.40
2023-05-10T06:49:45.322Z,12.39
2023-05-10T06:50:16.875Z,12.38
2023-05-10T06:50:48.226Z,12.38
2023-05-10T06:51:19.552Z,12.38
2023-05-10T06:51:50.977Z,12.38
2023-05-10T06:52:22.486Z,12.36
2023-05-10T06:52:53.929Z,12.37
2023-05-10T06:53:25.401Z,12.37
2023-05-10T06:53:56.725Z,12.38
2023-05-10T06:54:28.102Z,12.39
2023-05-10T06:54:59.595Z,12.39
2023-05-10T06:55:31.047Z,12.39
2023-05-10T06:56:04.547Z,12.41
2023-05-10T06:56:36.167Z,12.41
2023-05-10T06:57:16.147Z,12.41
2023-05-10T06:57:55.150Z,12.43
2023-05-10T06:58:26.456Z,12.43
2023-05-10T06:58:57.782Z,12.43
2023-05-10T06:59:29.283Z,12.43
2023-05-10T07:00:00.887Z,12.44
2023-05-10T07:00:32.508Z,12.43
2023-05-10T07:01:05.150Z,12.45
2023-05-10T07:01:36.571Z,12.45
2023-05-10T07:02:08.135Z,12.47
2023-05-10T07:02:39.502Z,12.48
2023-05-10T07:03:11.718Z,12.49
2023-05-10T07:03:43.293Z,12.49
2023-05-10T07:04:14.770Z,12.50
2023-05-10T07:04:48.867Z,12.48
2023-05-10T07:05:21.211Z,12.49
2023-05-10T07:05:52.827Z,12.49
2023-05-10T07:06:33.028Z,12.48
2023-05-10T07:07:05.297Z,12.49
2023-05-10T07:07:36.853Z,12.50
2023-05-10T07:08:08.403Z,12.51
2023-05-10T07:08:39.748Z,12.52
2023-05-10T07:09:11.132Z,12.52